Time;durP1;ratioP1;P1;durP2;ratioP2;P2;SDS_P1;SDS_P2;PMS_P1;PMS_P2;Temp;Humidity;BMP_temperature;BMP_pressure;BME280_temperature;BME280_humidity;BME280_pressure;Samples;Min_cycle;Max_cycle;Signal;HPM_P1;HPM_P2
2023/04/29 00:00:45;;;;;;;21.02;8.90;;;9.10;99.90;;;;;;5036346;28;20045;-80
2023/04/29 00:03:12;;;;;;;23.25;9.27;;;9.10;99.90;;;;;;5019644;28;20037;-81
2023/04/29 00:05:39;;;;;;;22.45;9.02;;;9.10;99.90;;;;;;5037467;28;20037;-80
2023/04/29 00:08:06;;;;;;;23.98;8.48;;;9.10;99.90;;;;;;5034956;28;20048;-80
2023/04/29 00:10:34;;;;;;;22.33;9.30;;;9.00;99.90;;;;;;5035964;28;20077;-80
2023/04/29 00:13:00;;;;;;;26.42;9.52;;;9.00;99.90;;;;;;5036989;28;20053;-81
2023/04/29 00:15:27;;;;;;;20.38;8.23;;;9.00;99.90;;;;;;5033995;28;20380;-80
2023/04/29 00:17:55;;;;;;;23.42;8.60;;;8.90;99.90;;;;;;5036679;28;20038;-80
2023/04/29 00:20:21;;;;;;;21.73;8.00;;;8.90;99.90;;;;;;5035058;28;20045;-80
2023/04/29 00:22:48;;;;;;;22.10;8.95;;;8.80;99.90;;;;;;5036346;28;20041;-81
2023/04/29 00:25:15;;;;;;;22.40;9.63;;;8.80;99.90;;;;;;5036549;28;20448;-82
2023/04/29 00:27:46;;;;;;;19.67;7.63;;;8.70;99.90;;;;;;5035779;28;20045;-82
2023/04/29 00:30:13;;;;;;;22.08;9.43;;;8.70;99.90;;;;;;5035666;28;20045;-80
2023/04/29 00:32:40;;;;;;;21.02;8.85;;;8.60;99.90;;;;;;5036382;28;20463;-79
2023/04/29 00:35:07;;;;;;;21.58;8.20;;;8.60;99.90;;;;;;5035564;28;20107;-80
2023/04/29 00:37:36;;;;;;;24.15;8.30;;;8.60;99.90;;;;;;5036407;28;20052;-82
2023/04/29 00:40:03;;;;;;;26.17;9.00;;;8.50;99.90;;;;;;5035459;28;20050;-81
2023/04/29 00:42:32;;;;;;;20.17;8.57;;;8.50;99.90;;;;;;5035282;28;20048;-82
2023/04/29 00:44:59;;;;;;;21.95;8.20;;;8.40;99.90;;;;;;5018714;28;20058;-82
2023/04/29 00:47:28;;;;;;;20.15;8.38;;;8.40;99.90;;;;;;5034984;28;20045;-82
2023/04/29 00:49:54;;;;;;;22.70;8.38;;;8.30;99.90;;;;;;5036382;28;20101;-81
2023/04/29 00:52:21;;;;;;;23.10;9.50;;;8.30;99.90;;;;;;5034990;28;20049;-81
2023/04/29 00:54:48;;;;;;;21.67;8.25;;;8.30;99.90;;;;;;5017770;28;20050;-81
2023/04/29 01:00:00;;;;;;;22.63;8.52;;;8.20;99.90;;;;;;5035894;28;20128;-82
2023/04/29 01:02:27;;;;;;;18.63;6.90;;;8.20;99.90;;;;;;5034851;28;20045;-81
2023/04/29 01:04:54;;;;;;;22.42;8.00;;;8.20;99.90;;;;;;5018551;28;20045;-82
2023/04/29 01:10:25;;;;;;;22.67;8.35;;;8.10;99.90;;;;;;5034848;28;20113;-82
2023/04/29 01:12:53;;;;;;;25.13;8.70;;;8.00;99.90;;;;;;5018187;28;20415;-81
2023/04/29 01:15:21;;;;;;;22.85;8.15;;;7.90;99.90;;;;;;5033865;28;20053;-82
2023/04/29 01:20:36;;;;;;;20.45;8.02;;;7.80;99.90;;;;;;5033818;28;20140;-81
2023/04/29 01:23:03;;;;;;;23.48;8.80;;;7.80;99.90;;;;;;5034201;28;20092;-81
2023/04/29 01:25:30;;;;;;;24.92;8.20;;;7.80;99.90;;;;;;5034508;28;20114;-81
2023/04/29 01:30:58;;;;;;;22.05;8.57;;;7.70;99.90;;;;;;5034709;28;20124;-82
2023/04/29 01:33:25;;;;;;;21.58;8.48;;;7.70;99.90;;;;;;5034492;28;20045;-81
2023/04/29 01:35:52;;;;;;;21.25;7.72;;;7.60;99.90;;;;;;5034440;28;20045;-82
2023/04/29 01:41:06;;;;;;;23.35;7.93;;;7.60;99.90;;;;;;5033239;28;20103;-81
2023/04/29 01:43:32;;;;;;;20.85;7.82;;;7.60;99.90;;;;;;5033885;28;20092;-81
2023/04/29 01:46:07;;;;;;;21.55;7.70;;;7.50;99.90;;;;;;5018909;28;20095;-81
2023/04/29 01:48:35;;;;;;;22.48;8.00;;;7.50;99.90;;;;;;5033399;28;20128;-82
2023/04/29 01:51:02;;;;;;;22.02;8.95;;;7.50;99.90;;;;;;5034099;28;20045;-81
2023/04/29 01:53:29;;;;;;;16.85;7.47;;;7.50;99.90;;;;;;5033256;28;20084;-81
2023/04/29 01:55:56;;;;;;;25.95;7.55;;;7.40;99.90;;;;;;5033972;28;20376;-81
2023/04/29 02:01:32;;;;;;;20.40;8.15;;;7.30;99.90;;;;;;5033949;28;20380;-81
2023/04/29 02:03:59;;;;;;;22.15;7.78;;;7.30;99.90;;;;;;5033843;28;20041;-81
2023/04/29 02:06:26;;;;;;;20.45;8.05;;;7.30;99.90;;;;;;5033816;28;20033;-81
2023/04/29 02:08:58;;;;;;;20.67;7.38;;;7.20;99.90;;;;;;5032976;28;20045;-81
2023/04/29 02:11:25;;;;;;;15.20;7.07;;;7.20;99.90;;;;;;5033749;28;20045;-81
2023/04/29 02:13:55;;;;;;;23.23;8.68;;;7.20;99.90;;;;;;5016816;28;20045;-81
2023/04/29 02:16:22;;;;;;;17.73;7.90;;;7.20;99.90;;;;;;5034528;28;20466;-81
2023/04/29 02:21:25;;;;;;;15.85;6.60;;;7.10;99.90;;;;;;5032806;28;19925;-81
2023/04/29 02:23:53;;;;;;;21.40;7.18;;;7.10;99.90;;;;;;5017227;28;20395;-81
2023/04/29 02:26:22;;;;;;;18.80;7.72;;;7.10;99.90;;;;;;5033653;28;20046;-81
2023/04/29 02:31:36;;;;;;;21.92;7.95;;;7.00;99.90;;;;;;5036696;28;20041;-81
2023/04/29 02:34:03;;;;;;;19.10;7.93;;;7.00;99.90;;;;;;5037118;28;20045;-81
2023/04/29 02:36:33;;;;;;;20.35;8.05;;;7.00;99.90;;;;;;5037579;28;20037;-82
2023/04/29 02:39:02;;;;;;;21.52;8.38;;;6.90;99.90;;;;;;5037582;28;20468;-81
2023/04/29 02:41:28;;;;;;;22.02;8.23;;;6.90;99.90;;;;;;5036913;28;20136;-81
2023/04/29 02:43:55;;;;;;;16.98;6.60;;;6.90;99.90;;;;;;5037113;28;20064;-81
2023/04/29 02:46:22;;;;;;;24.00;8.25;;;6.80;99.90;;;;;;5021162;28;20411;-81
2023/04/29 02:48:51;;;;;;;24.25;8.20;;;6.80;99.90;;;;;;5036675;28;20547;-81
2023/04/29 02:51:17;;;;;;;21.65;8.18;;;6.70;99.90;;;;;;5021094;28;20052;-81
2023/04/29 02:53:44;;;;;;;20.23;8.45;;;6.70;99.90;;;;;;5036345;28;20080;-81
2023/04/29 02:56:11;;;;;;;18.52;8.45;;;6.70;99.90;;;;;;5037267;28;20041;-82
2023/04/29 02:58:37;;;;;;;22.33;8.85;;;6.60;99.90;;;;;;5020810;28;20128;-81
2023/04/29 03:01:04;;;;;;;22.70;7.22;;;6.60;99.90;;;;;;5019984;28;20140;-81
2023/04/29 03:03:31;;;;;;;19.33;7.47;;;6.60;99.90;;;;;;5036925;28;20526;-81
2023/04/29 03:05:58;;;;;;;20.88;7.80;;;6.60;99.90;;;;;;5020792;28;20052;-81
2023/04/29 03:08:27;;;;;;;21.65;7.25;;;6.60;99.90;;;;;;5019962;28;20050;-82
2023/04/29 03:10:54;;;;;;;20.02;6.65;;;6.50;99.90;;;;;;5037450;28;20104;-82
2023/04/29 03:13:22;;;;;;;17.80;7.38;;;6.50;99.90;;;;;;5036892;28;20360;-81
2023/04/29 03:15:49;;;;;;;20.58;7.40;;;6.50;99.90;;;;;;5037041;28;20107;-82
2023/04/29 03:21:03;;;;;;;20.33;7.38;;;6.50;99.90;;;;;;5036037;28;20491;-81
2023/04/29 03:23:29;;;;;;;22.33;8.32;;;6.40;99.90;;;;;;5036552;28;20052;-81
2023/04/29 03:25:56;;;;;;;20.02;7.35;;;6.40;99.90;;;;;;5020411;28;20140;-81
2023/04/29 03:30:56;;;;;;;22.30;8.05;;;6.30;99.90;;;;;;5037618;28;20052;-81
2023/04/29 03:33:22;;;;;;;20.15;7.47;;;6.20;99.90;;;;;;5036514;28;20045;-81
2023/04/29 03:35:49;;;;;;;19.50;7.13;;;6.20;99.90;;;;;;5036701;28;20053;-82
2023/04/29 03:38:29;;;;;;;18.60;7.47;;;6.20;99.90;;;;;;5037401;28;20041;-82
2023/04/29 03:40:55;;;;;;;17.60;6.68;;;6.20;99.90;;;;;;5019604;28;20061;-81
2023/04/29 03:43:22;;;;;;;23.33;8.60;;;6.10;99.90;;;;;;5019818;28;20436;-81
2023/04/29 03:45:50;;;;;;;25.10;8.90;;;6.20;99.90;;;;;;5036279;28;20107;-81
2023/04/29 03:51:08;;;;;;;23.70;7.68;;;6.20;99.90;;;;;;5037394;28;20045;-81
2023/04/29 03:53:35;;;;;;;20.05;7.55;;;6.20;99.90;;;;;;5035363;28;20038;-81
2023/04/29 03:56:03;;;;;;;21.85;8.32;;;6.20;99.90;;;;;;5019938;28;20145;-81
2023/04/29 03:58:32;;;;;;;17.73;7.03;;;6.10;99.90;;;;;;5019780;28;20080;-82
2023/04/29 04:00:59;;;;;;;20.25;8.15;;;6.10;99.90;;;;;;5035487;28;20049;-81
2023/04/29 04:03:34;;;;;;;20.77;7.55;;;6.10;99.90;;;;;;5020545;28;20156;-81
2023/04/29 04:06:01;;;;;;;23.35;7.22;;;6.10;99.90;;;;;;5019695;28;20082;-82
2023/04/29 04:08:28;;;;;;;20.58;7.45;;;6.00;99.90;;;;;;5035534;28;20049;-82
2023/04/29 04:11:04;;;;;;;22.00;8.23;;;5.90;99.90;;;;;;5036523;28;20108;-82
2023/04/29 04:13:35;;;;;;;23.23;8.40;;;5.90;99.90;;;;;;5018998;28;20132;-82
2023/04/29 04:16:03;;;;;;;28.92;7.90;;;6.00;99.90;;;;;;5036426;28;20053;-82
2023/04/29 04:18:32;;;;;;;21.45;8.32;;;5.90;99.90;;;;;;5038683;28;20033;-82
2023/04/29 04:20:59;;;;;;;21.50;8.70;;;5.90;99.90;;;;;;5038494;28;20073;-80
2023/04/29 04:23:26;;;;;;;19.20;6.95;;;5.90;99.90;;;;;;5038811;28;20431;-81
2023/04/29 04:25:53;;;;;;;22.67;8.20;;;5.90;99.90;;;;;;5055566;28;20049;-81
2023/04/29 04:32:07;;;;;;;20.20;7.15;;;5.80;99.90;;;;;;5055320;28;20036;-81
2023/04/29 04:34:38;;;;;;;17.80;6.75;;;5.80;99.90;;;;;;5054526;28;20148;-82
2023/04/29 04:37:05;;;;;;;21.75;7.78;;;5.80;99.90;;;;;;5038883;28;20049;-82
2023/04/29 04:42:19;;;;;;;20.70;8.00;;;5.70;99.90;;;;;;5054334;28;20053;-81
2023/04/29 04:44:48;;;;;;;19.80;7.35;;;5.70;99.90;;;;;;5038827;28;20060;-81
2023/04/29 04:47:29;;;;;;;25.95;8.48;;;5.70;99.90;;;;;;5054729;28;20128;-81
2023/04/29 04:50:01;;;;;;;20.38;7.47;;;5.70;99.90;;;;;;5039417;28;20481;-82
2023/04/29 04:52:27;;;;;;;21.10;7.72;;;5.70;99.90;;;;;;5054583;28;20518;-80
2023/04/29 04:55:14;;;;;;;18.55;7.03;;;5.70;99.90;;;;;;5047994;28;20084;-82
2023/04/29 04:57:44;;;;;;;18.58;7.03;;;5.70;99.90;;;;;;5055050;28;20068;-82
2023/04/29 05:00:11;;;;;;;22.05;7.07;;;5.70;99.90;;;;;;5037587;28;20063;-82
2023/04/29 05:02:38;;;;;;;23.50;8.52;;;5.70;99.90;;;;;;5054715;28;20133;-81
2023/04/29 05:05:05;;;;;;;22.05;7.95;;;5.80;99.90;;;;;;5054775;28;20083;-82
2023/04/29 05:07:39;;;;;;;21.67;8.00;;;5.70;99.90;;;;;;5053988;28;20411;-82
2023/04/29 05:10:07;;;;;;;18.30;7.25;;;5.80;99.90;;;;;;5054911;28;20395;-79
2023/04/29 05:12:42;;;;;;;24.58;7.40;;;5.80;99.90;;;;;;5054551;28;20479;-82
2023/04/29 05:15:09;;;;;;;21.40;8.00;;;5.90;99.90;;;;;;5053946;28;20049;-82
2023/04/29 05:20:23;;;;;;;26.60;8.40;;;5.90;99.90;;;;;;5053824;28;20056;-81
2023/04/29 05:22:50;;;;;;;26.15;8.35;;;6.10;99.90;;;;;;5054734;28;20495;-82
2023/04/29 05:25:18;;;;;;;21.25;7.45;;;6.10;99.90;;;;;;5054379;28;20044;-82
2023/04/29 05:27:46;;;;;;;16.75;6.68;;;6.20;99.90;;;;;;5042528;28;20101;-81
2023/04/29 05:30:17;;;;;;;22.55;8.13;;;6.30;99.90;;;;;;5034486;28;20045;-81
2023/04/29 05:32:44;;;;;;;23.23;7.93;;;6.40;99.90;;;;;;5034245;28;20086;-80
2023/04/29 05:35:14;;;;;;;24.15;7.85;;;6.50;99.90;;;;;;5017916;28;20042;-79
2023/04/29 05:40:35;;;;;;;20.65;7.57;;;6.60;99.90;;;;;;5033803;28;20119;-79
2023/04/29 05:43:35;;;;;;;25.92;8.88;;;6.90;99.90;;;;;;5023698;28;20367;-79
2023/04/29 05:46:02;;;;;;;21.75;7.90;;;7.10;99.90;;;;;;5037659;28;20074;-82
2023/04/29 05:51:15;;;;;;;24.55;9.07;;;7.30;99.90;;;;;;5037509;28;20067;-80
2023/04/29 05:53:42;;;;;;;25.27;9.57;;;7.50;99.90;;;;;;5036518;28;20118;-79
2023/04/29 05:56:09;;;;;;;22.25;9.35;;;7.60;99.90;;;;;;5037823;28;20033;-80
2023/04/29 06:01:23;;;;;;;25.42;9.90;;;7.70;99.90;;;;;;5037676;28;20044;-82
2023/04/29 06:03:50;;;;;;;24.55;9.55;;;7.80;99.90;;;;;;5039728;28;20037;-81
2023/04/29 06:06:29;;;;;;;25.25;9.80;;;7.90;99.90;;;;;;5038732;28;20068;-83
2023/04/29 06:11:52;;;;;;;28.17;11.48;;;8.10;99.90;;;;;;5021750;28;20037;-81
2023/04/29 06:14:19;;;;;;;26.50;9.77;;;8.20;99.90;;;;;;5035645;28;20128;-82
2023/04/29 06:16:47;;;;;;;23.20;9.57;;;8.40;99.90;;;;;;5020874;28;20122;-82
2023/04/29 06:19:15;;;;;;;28.30;10.43;;;8.60;99.90;;;;;;5037041;28;20045;-82
2023/04/29 06:21:42;;;;;;;24.23;9.07;;;8.80;99.90;;;;;;5032037;28;20080;-82
2023/04/29 06:24:09;;;;;;;27.20;10.23;;;8.90;99.90;;;;;;4995660;28;20134;-83
2023/04/29 06:26:35;;;;;;;25.42;10.23;;;9.00;99.90;;;;;;5017070;28;20057;-82
2023/04/29 06:29:05;;;;;;;26.83;9.50;;;9.10;99.90;;;;;;5017198;28;20037;-83
2023/04/29 06:31:32;;;;;;;23.13;8.73;;;9.20;99.90;;;;;;5017108;28;20072;-82
2023/04/29 06:34:02;;;;;;;24.05;9.30;;;9.30;99.90;;;;;;5016035;28;20045;-81
2023/04/29 06:36:31;;;;;;;24.08;9.88;;;9.40;99.90;;;;;;5017526;28;20388;-82
2023/04/29 06:42:07;;;;;;;25.88;9.75;;;9.40;99.90;;;;;;5015925;28;20045;-83
2023/04/29 06:44:54;;;;;;;23.25;8.35;;;9.50;99.90;;;;;;5020323;28;20491;-83
2023/04/29 06:50:37;;;;;;;27.15;9.27;;;9.60;99.90;;;;;;5025975;28;20057;-82
2023/04/29 06:53:05;;;;;;;25.80;9.65;;;9.60;99.90;;;;;;5015739;28;20045;-81
2023/04/29 06:55:32;;;;;;;25.92;9.63;;;9.70;99.90;;;;;;5032517;28;20042;-81
2023/04/29 06:58:00;;;;;;;22.55;9.88;;;9.80;99.90;;;;;;5033817;28;20052;-81
2023/04/29 07:00:27;;;;;;;22.38;9.48;;;9.90;99.90;;;;;;5032612;28;20067;-82
2023/04/29 07:02:54;;;;;;;28.85;8.85;;;10.00;99.90;;;;;;5034044;28;20038;-82
2023/04/29 07:05:21;;;;;;;21.35;8.90;;;10.10;99.90;;;;;;5034523;28;20112;-82
2023/04/29 07:07:47;;;;;;;21.92;8.50;;;10.20;99.90;;;;;;5015883;28;20045;-82
2023/04/29 07:10:14;;;;;;;22.45;9.65;;;10.40;99.90;;;;;;5033283;28;20041;-85
2023/04/29 07:12:41;;;;;;;23.23;8.10;;;10.50;99.90;;;;;;5033552;28;20419;-82
2023/04/29 07:15:07;;;;;;;21.75;8.68;;;10.60;99.90;;;;;;5023061;28;20056;-82
2023/04/29 07:17:34;;;;;;;25.45;8.88;;;10.80;99.90;;;;;;5026117;28;20128;-82
2023/04/29 07:20:01;;;;;;;18.33;7.53;;;10.80;99.90;;;;;;5037666;28;20041;-83
2023/04/29 07:22:27;;;;;;;17.85;7.72;;;10.90;99.90;;;;;;5035171;28;20049;-83
2023/04/29 07:24:55;;;;;;;19.35;7.68;;;11.00;99.90;;;;;;5020515;28;20048;-83
2023/04/29 07:27:23;;;;;;;19.65;7.65;;;11.10;99.90;;;;;;5035672;28;20148;-83
2023/04/29 07:29:50;;;;;;;19.98;7.05;;;11.30;99.90;;;;;;5027606;28;20037;-83
2023/04/29 07:32:17;;;;;;;21.65;8.00;;;11.40;99.90;;;;;;5025576;28;20038;-83
2023/04/29 07:34:44;;;;;;;18.27;7.57;;;11.50;99.90;;;;;;5025527;28;20033;-82
2023/04/29 07:37:11;;;;;;;20.50;7.68;;;11.50;99.90;;;;;;5013651;28;20080;-83
2023/04/29 07:39:37;;;;;;;20.23;8.30;;;11.40;99.90;;;;;;5025845;28;20121;-81
2023/04/29 07:42:04;;;;;;;18.35;6.20;;;11.40;99.90;;;;;;5007940;28;20029;-83
2023/04/29 07:44:31;;;;;;;19.77;8.13;;;11.50;99.90;;;;;;5026725;28;20050;-83
2023/04/29 07:46:58;;;;;;;18.42;7.10;;;11.50;99.90;;;;;;5025562;28;20445;-81
2023/04/29 07:49:25;;;;;;;19.88;8.05;;;11.50;99.90;;;;;;5006549;28;20034;-81
2023/04/29 07:51:51;;;;;;;17.67;7.18;;;11.50;99.90;;;;;;5048737;28;20145;-82
2023/04/29 07:54:18;;;;;;;16.95;7.13;;;11.50;99.90;;;;;;5049061;28;20357;-85
2023/04/29 07:56:45;;;;;;;23.20;7.95;;;11.80;99.90;;;;;;5016663;28;20483;-84
2023/04/29 07:59:11;;;;;;;15.77;6.93;;;12.10;99.90;;;;;;5000664;28;20053;-83
2023/04/29 08:01:38;;;;;;;17.23;7.18;;;12.40;99.90;;;;;;5018628;28;20049;-84
2023/04/29 08:04:06;;;;;;;18.48;7.72;;;12.70;99.90;;;;;;5025553;28;20034;-83
2023/04/29 08:06:41;;;;;;;17.88;7.57;;;12.90;99.90;;;;;;5001662;28;20350;-83
2023/04/29 08:09:10;;;;;;;16.13;7.13;;;12.90;99.90;;;;;;5033969;28;20476;-81
2023/04/29 08:11:40;;;;;;;19.08;7.50;;;13.00;99.90;;;;;;5035849;28;20050;-81
2023/04/29 08:14:07;;;;;;;18.40;6.65;;;13.20;99.90;;;;;;5036342;28;20045;-81
2023/04/29 08:16:34;;;;;;;14.95;6.10;;;13.30;99.90;;;;;;5028106;28;20057;-80
2023/04/29 08:19:03;;;;;;;16.58;6.82;;;13.60;99.90;;;;;;5035870;28;20037;-85
2023/04/29 08:21:30;;;;;;;17.08;7.07;;;13.70;99.90;;;;;;5026767;28;20042;-82
2023/04/29 08:23:57;;;;;;;19.80;7.38;;;13.70;99.90;;;;;;5003068;28;20038;-82
2023/04/29 08:26:24;;;;;;;15.85;6.55;;;13.70;99.90;;;;;;5016157;28;20483;-81
2023/04/29 08:28:50;;;;;;;16.52;6.72;;;13.70;99.90;;;;;;5015149;28;20030;-84
2023/04/29 08:31:17;;;;;;;16.13;6.78;;;13.90;99.90;;;;;;5000014;28;20056;-81
2023/04/29 08:33:44;;;;;;;16.27;6.43;;;14.00;99.90;;;;;;4998743;28;20080;-82
2023/04/29 08:36:11;;;;;;;12.90;6.45;;;14.10;99.90;;;;;;5016929;28;20104;-84
2023/04/29 08:38:37;;;;;;;14.77;6.10;;;14.20;99.90;;;;;;5008808;28;20045;-82
2023/04/29 08:41:04;;;;;;;13.95;6.57;;;14.20;99.90;;;;;;5014460;28;20053;-83
2023/04/29 08:43:32;;;;;;;14.77;6.05;;;14.30;99.90;;;;;;5015323;28;20435;-82
2023/04/29 08:45:59;;;;;;;17.30;6.80;;;14.40;99.90;;;;;;5015747;28;20128;-82
2023/04/29 08:48:26;;;;;;;18.45;6.88;;;14.40;99.90;;;;;;5014942;28;20044;-83
2023/04/29 08:50:53;;;;;;;15.43;5.95;;;14.40;99.90;;;;;;5015557;28;20116;-83
2023/04/29 08:53:21;;;;;;;13.43;6.57;;;14.50;99.90;;;;;;5015465;28;20074;-83
2023/04/29 08:55:47;;;;;;;12.85;5.72;;;14.80;99.90;;;;;;5014619;28;20068;-82
2023/04/29 08:58:15;;;;;;;12.80;6.00;;;14.90;99.90;;;;;;5015635;28;20065;-82
2023/04/29 09:00:42;;;;;;;16.27;6.55;;;15.10;99.90;;;;;;5014692;28;20061;-82
2023/04/29 09:03:09;;;;;;;13.15;5.78;;;15.20;99.90;;;;;;5015119;28;20049;-82
2023/04/29 09:05:35;;;;;;;13.05;5.95;;;15.10;99.90;;;;;;5015337;28;20065;-81
2023/04/29 09:08:03;;;;;;;12.90;5.90;;;15.30;99.90;;;;;;5015511;28;20038;-82
2023/04/29 09:10:30;;;;;;;13.18;6.00;;;15.50;99.90;;;;;;5015000;28;20056;-83
2023/04/29 09:12:57;;;;;;;13.82;6.38;;;15.60;99.90;;;;;;5014712;28;20041;-81
2023/04/29 09:15:24;;;;;;;14.95;5.97;;;15.60;99.90;;;;;;5042475;28;20044;-82
2023/04/29 09:17:52;;;;;;;12.73;5.68;;;15.70;99.90;;;;;;5055080;28;20037;-82
2023/04/29 09:20:19;;;;;;;12.68;5.47;;;16.00;99.90;;;;;;5055312;28;20040;-82
2023/04/29 09:22:46;;;;;;;15.82;5.55;;;16.10;99.90;;;;;;5054608;28;20045;-82
2023/04/29 09:25:13;;;;;;;13.30;5.38;;;16.10;99.90;;;;;;5055240;28;20467;-82
2023/04/29 09:27:41;;;;;;;11.40;5.35;;;16.10;99.90;;;;;;5043600;28;20033;-82
2023/04/29 09:30:08;;;;;;;12.40;5.82;;;16.40;99.90;;;;;;5035481;28;20044;-82
2023/04/29 09:32:35;;;;;;;13.55;5.60;;;16.60;99.90;;;;;;5018127;28;20045;-81
2023/04/29 09:35:04;;;;;;;15.48;6.28;;;16.60;99.90;;;;;;5033901;28;20049;-82
2023/04/29 09:40:16;;;;;;;12.68;5.85;;;16.50;99.90;;;;;;5034650;28;20375;-81
2023/04/29 09:42:43;;;;;;;14.85;5.50;;;16.50;99.90;;;;;;5034069;28;20464;-81
2023/04/29 09:45:11;;;;;;;11.10;5.13;;;16.50;99.90;;;;;;5047381;28;20052;-81
2023/04/29 09:47:38;;;;;;;10.68;4.82;;;16.70;99.90;;;;;;5036709;28;20044;-81
2023/04/29 09:50:05;;;;;;;15.50;5.57;;;16.70;99.90;;;;;;5038277;28;20087;-80
2023/04/29 09:52:31;;;;;;;11.82;5.28;;;16.80;99.90;;;;;;5037209;28;20052;-80
2023/04/29 09:54:58;;;;;;;11.40;5.38;;;16.80;99.90;;;;;;5054153;28;20089;-82
2023/04/29 09:57:26;;;;;;;13.70;6.00;;;17.10;99.90;;;;;;5054898;28;20060;-81
2023/04/29 09:59:52;;;;;;;11.40;5.18;;;17.50;99.90;;;;;;5037265;28;20044;-81
2023/04/29 10:02:19;;;;;;;10.70;5.18;;;17.40;99.90;;;;;;5036641;28;20040;-81
2023/04/29 10:04:46;;;;;;;12.63;4.93;;;17.30;99.90;;;;;;5055058;28;20095;-81
2023/04/29 10:07:13;;;;;;;10.88;5.03;;;17.30;99.90;;;;;;5050974;28;20415;-81
2023/04/29 10:09:40;;;;;;;11.00;5.50;;;17.40;99.90;;;;;;5010719;28;20037;-81
2023/04/29 10:12:07;;;;;;;11.48;5.20;;;17.60;99.90;;;;;;5017141;28;20059;-82
2023/04/29 10:14:33;;;;;;;11.95;5.63;;;17.80;99.90;;;;;;5001200;28;20054;-82
2023/04/29 10:17:00;;;;;;;10.98;5.03;;;18.00;99.90;;;;;;5022159;28;20045;-82
2023/04/29 10:19:27;;;;;;;10.30;4.50;;;18.20;99.90;;;;;;4997778;28;20069;-81
2023/04/29 10:21:54;;;;;;;10.02;4.50;;;18.40;99.90;;;;;;4980166;28;20056;-81
2023/04/29 10:24:22;;;;;;;10.82;4.80;;;18.50;99.90;;;;;;4996886;28;20049;-82
2023/04/29 10:26:48;;;;;;;9.40;4.28;;;18.40;99.90;;;;;;4999231;28;20033;-82
2023/04/29 10:29:15;;;;;;;9.45;4.40;;;18.70;99.90;;;;;;5000090;28;20477;-82
2023/04/29 10:31:42;;;;;;;9.88;4.20;;;19.00;99.90;;;;;;4996844;28;20046;-81
2023/04/29 10:34:08;;;;;;;10.15;5.05;;;19.10;99.90;;;;;;5013660;28;20381;-81
2023/04/29 10:36:35;;;;;;;12.20;4.90;;;19.30;99.90;;;;;;5014588;28;20038;-81
2023/04/29 10:39:02;;;;;;;10.57;5.25;;;19.40;99.90;;;;;;5014170;28;20046;-81
2023/04/29 10:41:29;;;;;;;11.20;5.00;;;19.30;99.90;;;;;;5013016;28;20038;-81
2023/04/29 10:43:56;;;;;;;10.25;4.70;;;19.60;99.90;;;;;;4994257;28;20055;-84
2023/04/29 10:46:22;;;;;;;8.80;4.28;;;19.60;99.90;;;;;;5016684;28;20388;-83
2023/04/29 10:48:54;;;;;;;9.95;4.63;;;20.00;99.90;;;;;;5032828;28;20459;-82
2023/04/29 10:51:21;;;;;;;8.60;4.55;;;20.30;99.90;;;;;;5035478;28;20033;-83
2023/04/29 10:53:47;;;;;;;9.32;4.45;;;20.60;99.90;;;;;;5029458;28;20041;-82
2023/04/29 10:56:15;;;;;;;9.80;5.03;;;21.10;99.90;;;;;;5037258;28;20053;-84
2023/04/29 10:58:43;;;;;;;10.52;5.30;;;21.30;99.90;;;;;;5037836;28;20073;-84
2023/04/29 11:01:10;;;;;;;10.32;5.57;;;21.60;99.90;;;;;;5036311;28;20084;-81
2023/04/29 11:03:37;;;;;;;10.32;5.78;;;21.70;99.90;;;;;;5037074;28;20056;-81
2023/04/29 11:06:04;;;;;;;10.23;5.32;;;21.60;99.90;;;;;;5036103;28;20140;-83
2023/04/29 11:11:35;;;;;;;12.77;6.70;;;22.50;99.90;;;;;;5037866;28;20079;-81
2023/04/29 11:14:02;;;;;;;9.98;4.35;;;22.40;97.30;;;;;;5035734;28;20053;-83
2023/04/29 11:16:29;;;;;;;10.70;5.20;;;22.70;97.30;;;;;;5019267;28;20045;-81
2023/04/29 11:18:58;;;;;;;9.52;5.60;;;22.90;93.90;;;;;;5018106;28;20045;-83
2023/04/29 11:21:26;;;;;;;10.50;5.95;;;23.00;96.20;;;;;;5026029;28;20045;-83
2023/04/29 11:23:52;;;;;;;8.13;5.18;;;23.40;92.90;;;;;;5037164;28;20038;-82
2023/04/29 11:26:20;;;;;;;10.40;5.60;;;23.20;92.30;;;;;;5037911;28;20045;-82
2023/04/29 11:28:48;;;;;;;10.73;5.57;;;23.50;91.80;;;;;;5036894;28;20056;-83
2023/04/29 11:31:14;;;;;;;11.15;6.35;;;23.40;90.70;;;;;;5037293;28;20540;-83
2023/04/29 11:33:41;;;;;;;10.10;5.63;;;23.70;94.50;;;;;;5035911;28;20524;-82
2023/04/29 11:36:08;;;;;;;8.50;6.32;;;24.00;89.90;;;;;;5037420;28;20112;-82
2023/04/29 11:38:35;;;;;;;10.90;6.28;;;23.90;90.40;;;;;;5020320;28;20403;-81
2023/04/29 11:41:02;;;;;;;10.40;6.28;;;23.90;88.70;;;;;;5036290;28;20112;-86
2023/04/29 11:43:28;;;;;;;11.15;5.53;;;24.10;88.70;;;;;;5016021;28;20029;-84
2023/04/29 11:45:55;;;;;;;11.95;6.50;;;24.30;87.20;;;;;;5032330;28;20041;-85
2023/04/29 11:48:23;;;;;;;11.32;6.57;;;24.40;87.60;;;;;;5024118;28;20046;-86
2023/04/29 11:50:49;;;;;;;8.80;5.38;;;24.40;86.00;;;;;;5013424;28;20099;-84
2023/04/29 11:53:16;;;;;;;8.02;5.13;;;24.50;88.20;;;;;;5023417;28;20045;-82
2023/04/29 11:55:43;;;;;;;8.15;4.75;;;24.70;83.60;;;;;;4999361;28;20056;-83
2023/04/29 11:58:11;;;;;;;8.68;4.90;;;24.60;84.00;;;;;;5019854;28;20056;-83
2023/04/29 12:00:37;;;;;;;9.05;5.32;;;24.70;83.10;;;;;;5031024;28;20049;-81
2023/04/29 12:03:04;;;;;;;8.48;5.15;;;24.80;80.00;;;;;;5035475;28;20132;-85
2023/04/29 12:05:31;;;;;;;8.68;4.63;;;24.60;80.50;;;;;;5036345;28;20045;-84
2023/04/29 12:07:59;;;;;;;8.05;4.80;;;24.80;79.80;;;;;;5018833;28;20357;-84
2023/04/29 12:10:25;;;;;;;8.02;4.20;;;25.00;77.00;;;;;;5035101;28;20392;-83
2023/04/29 12:12:52;;;;;;;8.85;4.68;;;24.80;81.10;;;;;;5035402;28;20099;-84
2023/04/29 12:15:19;;;;;;;7.63;4.82;;;24.80;77.20;;;;;;5034844;28;20038;-83
2023/04/29 12:17:46;;;;;;;7.22;4.65;;;24.80;76.00;;;;;;5036518;28;20060;-83
2023/04/29 12:20:13;;;;;;;8.68;4.88;;;25.20;78.60;;;;;;5036019;28;20045;-86
2023/04/29 12:22:40;;;;;;;10.05;5.57;;;25.70;76.10;;;;;;5035352;28;20033;-83
2023/04/29 12:25:06;;;;;;;9.02;5.35;;;25.10;72.50;;;;;;5035215;28;20073;-83
2023/04/29 12:27:35;;;;;;;9.25;4.53;;;25.30;75.60;;;;;;5034437;28;20126;-82
2023/04/29 12:30:01;;;;;;;9.10;4.55;;;25.70;77.50;;;;;;5036256;28;20137;-83
2023/04/29 12:32:28;;;;;;;8.13;4.57;;;25.90;74.30;;;;;;5021995;28;20045;-84
2023/04/29 12:34:55;;;;;;;9.80;4.43;;;25.80;73.70;;;;;;5017938;28;20379;-85
2023/04/29 12:37:22;;;;;;;8.65;4.63;;;25.60;75.00;;;;;;5027910;28;20041;-82
2023/04/29 12:39:49;;;;;;;9.73;4.90;;;24.70;72.50;;;;;;5032314;28;20057;-83
2023/04/29 12:42:16;;;;;;;7.93;4.95;;;24.00;74.90;;;;;;5017951;28;20411;-83
2023/04/29 12:44:42;;;;;;;9.90;5.63;;;23.80;75.50;;;;;;5019294;28;20152;-85
2023/04/29 12:47:09;;;;;;;9.80;4.65;;;23.50;76.40;;;;;;5032364;28;20372;-85
2023/04/29 12:49:39;;;;;;;9.32;5.07;;;23.20;77.60;;;;;;5026696;28;20042;-84
2023/04/29 12:52:09;;;;;;;9.50;4.72;;;22.90;80.00;;;;;;5016836;28;20141;-84
2023/04/29 12:54:35;;;;;;;9.85;4.90;;;23.40;78.30;;;;;;4998484;28;20116;-84
2023/04/29 12:57:03;;;;;;;9.50;5.00;;;23.60;81.10;;;;;;5015901;28;20048;-84
2023/04/29 13:02:01;;;;;;;9.63;4.43;;;23.00;79.30;;;;;;5014328;28;20050;-83
2023/04/29 13:04:28;;;;;;;9.40;5.50;;;22.80;80.60;;;;;;5015321;28;20045;-83
2023/04/29 13:07:04;;;;;;;9.43;4.97;;;23.00;80.10;;;;;;5014429;28;20107;-83
2023/04/29 13:09:36;;;;;;;9.85;6.03;;;23.40;79.70;;;;;;5015482;28;20064;-83
2023/04/29 13:12:03;;;;;;;10.85;4.95;;;23.70;79.90;;;;;;5014985;28;20115;-84
2023/04/29 13:14:29;;;;;;;12.70;6.32;;;24.10;81.50;;;;;;5013371;28;20053;-84
2023/04/29 13:16:56;;;;;;;9.73;5.07;;;24.40;77.40;;;;;;5014935;28;20307;-84
2023/04/29 13:19:24;;;;;;;11.05;5.93;;;24.10;76.30;;;;;;5015802;28;20104;-83
2023/04/29 13:22:11;;;;;;;12.45;6.47;;;23.60;78.20;;;;;;5014017;28;20453;-83
2023/04/29 13:24:37;;;;;;;11.63;6.82;;;23.70;80.20;;;;;;5014783;28;20046;-87
2023/04/29 13:27:04;;;;;;;10.32;6.30;;;24.40;80.00;;;;;;5013919;28;20491;-85
2023/04/29 13:29:33;;;;;;;11.65;5.95;;;25.00;76.40;;;;;;5015781;28;20171;-85
2023/04/29 13:32:00;;;;;;;10.30;5.65;;;25.20;75.50;;;;;;5014546;28;20056;-84
2023/04/29 13:34:27;;;;;;;9.88;5.50;;;25.70;78.40;;;;;;5018884;28;20520;-86
2023/04/29 13:36:53;;;;;;;9.55;6.05;;;26.20;74.90;;;;;;5014303;28;20836;-87
2023/04/29 13:42:07;;;;;;;10.52;5.80;;;26.70;73.20;;;;;;5013174;28;20468;-87
2023/04/29 13:44:35;;;;;;;10.27;6.45;;;26.70;70.00;;;;;;5014382;28;20058;-88
2023/04/29 13:49:56;;;;;;;9.95;6.43;;;26.60;70.50;;;;;;5015053;28;20050;-88
2023/04/29 13:52:43;;;;;;;10.80;5.90;;;25.50;70.20;;;;;;5014869;28;20038;-86
2023/04/29 13:55:13;;;;;;;8.68;5.38;;;25.50;72.00;;;;;;4997966;28;20052;-88
2023/04/29 13:58:02;;;;;;;9.70;5.57;;;26.20;74.90;;;;;;5012618;28;20061;-84